createdAt,value
2023-05-25T00:01:58.937Z,3.25
2023-05-25T00:04:30.631Z,3.38
2023-05-25T00:06:59.314Z,2.70
2023-05-25T00:09:27.521Z,3.55
2023-05-25T00:11:55.993Z,3.08
2023-05-25T00:14:24.167Z,3.20
2023-05-25T00:16:53.256Z,3.33
2023-05-25T00:19:23.293Z,2.70
2023-05-25T00:21:52.261Z,2.45
2023-05-25T00:24:20.924Z,2.58
2023-05-25T00:26:49.135Z,2.38
2023-05-25T00:29:17.336Z,2.97
2023-05-25T00:31:45.802Z,3.17
2023-05-25T00:34:14.426Z,2.67
2023-05-25T00:36:44.526Z,3.15
2023-05-25T00:39:12.858Z,3.22
2023-05-25T00:41:42.611Z,3.13
2023-05-25T00:44:11.356Z,3.17
2023-05-25T00:46:39.824Z,3.33
2023-05-25T00:49:08.148Z,3.15
2023-05-25T00:51:37.634Z,3.38
2023-05-25T00:54:07.994Z,3.35
2023-05-25T00:56:43.511Z,3.90
2023-05-25T00:59:16.259Z,2.75
2023-05-25T01:01:46.975Z,3.92
2023-05-25T01:04:17.243Z,3.17
2023-05-25T01:06:50.241Z,3.28
2023-05-25T01:09:22.738Z,3.63
2023-05-25T01:11:53.072Z,3.03
2023-05-25T01:14:22.848Z,3.20
2023-05-25T01:16:51.974Z,3.80
2023-05-25T01:19:20.248Z,3.38
2023-05-25T01:21:58.459Z,3.22
2023-05-25T01:24:32.524Z,3.58
2023-05-25T01:27:09.720Z,3.20
2023-05-25T01:29:41.288Z,3.90
2023-05-25T01:32:10.899Z,3.45
2023-05-25T01:34:41.003Z,4.38
2023-05-25T01:37:13.854Z,4.32
2023-05-25T01:39:42.429Z,3.88
2023-05-25T01:42:10.930Z,3.75
2023-05-25T01:44:40.691Z,3.88
2023-05-25T01:47:17.766Z,3.85
2023-05-25T01:49:57.398Z,3.60
2023-05-25T01:52:30.389Z,3.92
2023-05-25T01:55:04.145Z,3.85
2023-05-25T01:57:37.625Z,4.40
2023-05-25T02:00:08.021Z,3.60
2023-05-25T02:02:44.387Z,4.10
2023-05-25T02:05:13.638Z,4.65
2023-05-25T02:07:43.478Z,4.13
2023-05-25T02:10:12.533Z,3.97
2023-05-25T02:12:41.172Z,4.65
2023-05-25T02:15:10.714Z,3.95
2023-05-25T02:17:39.323Z,4.07
2023-05-25T02:20:09.788Z,4.22
2023-05-25T02:22:38.488Z,4.05
2023-05-25T02:25:10.850Z,4.63
2023-05-25T02:27:39.375Z,4.03
2023-05-25T02:30:09.936Z,4.88
2023-05-25T02:32:38.643Z,4.85
2023-05-25T02:35:08.326Z,4.75
2023-05-25T02:37:37.194Z,4.57
2023-05-25T02:40:07.424Z,4.47
2023-05-25T02:42:37.379Z,4.15
2023-05-25T02:45:06.902Z,4.30
2023-05-25T02:47:36.474Z,4.22
2023-05-25T02:50:05.323Z,4.60
2023-05-25T02:52:37.471Z,4.65
2023-05-25T02:55:20.644Z,4.22
2023-05-25T02:57:50.611Z,4.25
2023-05-25T03:00:35.449Z,4.60
2023-05-25T03:03:05.046Z,4.43
2023-05-25T03:05:35.314Z,4.10
2023-05-25T03:08:04.155Z,4.35
2023-05-25T03:10:32.666Z,4.97
2023-05-25T03:13:02.327Z,4.45
2023-05-25T03:15:30.941Z,4.40
2023-05-25T03:18:01.409Z,4.20
2023-05-25T03:23:03.671Z,4.55
2023-05-25T03:25:32.205Z,5.13
2023-05-25T03:28:03.129Z,4.63
2023-05-25T03:30:31.914Z,5.60
2023-05-25T03:33:00.317Z,4.63
2023-05-25T03:35:44.748Z,4.72
2023-05-25T03:38:19.277Z,4.82
2023-05-25T03:40:48.289Z,5.43
2023-05-25T03:43:21.451Z,5.53
2023-05-25T03:45:50.370Z,4.35
2023-05-25T03:48:18.925Z,4.30
2023-05-25T03:50:48.201Z,4.90
2023-05-25T03:53:17.580Z,4.15
2023-05-25T03:55:46.753Z,5.10
2023-05-25T03:58:16.114Z,5.13
2023-05-25T04:00:46.041Z,4.43
2023-05-25T04:03:15.369Z,5.55
2023-05-25T04:05:46.125Z,6.38
2023-05-25T04:08:18.131Z,7.38
2023-05-25T04:10:47.061Z,5.03
2023-05-25T04:13:15.672Z,5.55
2023-05-25T04:15:45.843Z,4.43
2023-05-25T04:18:19.154Z,5.63
2023-05-25T04:20:49.434Z,5.20
2023-05-25T04:23:21.001Z,4.60
2023-05-25T04:25:51.553Z,4.10
2023-05-25T04:28:20.197Z,5.40
2023-05-25T04:30:57.421Z,4.07
2023-05-25T04:33:44.921Z,3.95
2023-05-25T04:36:34.993Z,4.38
2023-05-25T04:39:07.387Z,4.57
2023-05-25T04:41:40.168Z,3.97
2023-05-25T04:44:11.410Z,5.03
2023-05-25T04:46:45.082Z,4.32
2023-05-25T04:49:22.012Z,5.15
2023-05-25T04:51:51.860Z,5.25
2023-05-25T04:54:20.181Z,4.70
2023-05-25T04:56:48.716Z,5.28
2023-05-25T04:59:17.326Z,5.32
2023-05-25T05:01:47.954Z,4.97
2023-05-25T05:04:18.920Z,5.00
2023-05-25T05:06:48.670Z,4.50
2023-05-25T05:09:22.614Z,4.40
2023-05-25T05:11:51.296Z,5.63
2023-05-25T05:14:20.961Z,6.00
2023-05-25T05:16:51.536Z,4.88
2023-05-25T05:19:20.270Z,5.57
2023-05-25T05:21:49.075Z,5.38
2023-05-25T05:24:18.867Z,5.00
2023-05-25T05:29:26.903Z,5.63
2023-05-25T05:31:57.306Z,5.80
2023-05-25T05:34:26.901Z,5.45
2023-05-25T05:36:58.595Z,5.22
2023-05-25T05:39:29.180Z,4.70
2023-05-25T05:41:58.167Z,6.50
2023-05-25T05:44:29.340Z,5.05
2023-05-25T05:47:01.709Z,4.55
2023-05-25T05:49:32.556Z,5.55
2023-05-25T05:52:02.401Z,4.90
2023-05-25T05:54:31.084Z,5.38
2023-05-25T05:57:03.383Z,5.90
2023-05-25T05:59:32.062Z,5.15
2023-05-25T06:02:01.745Z,5.95
2023-05-25T06:04:30.737Z,5.47
2023-05-25T06:07:00.027Z,5.60
2023-05-25T06:09:28.589Z,4.95
2023-05-25T06:12:01.704Z,6.45
2023-05-25T06:14:30.448Z,6.60
2023-05-25T06:17:03.723Z,6.75
2023-05-25T06:19:32.402Z,6.03
2023-05-25T06:22:00.709Z,5.85
2023-05-25T06:24:29.998Z,7.00
2023-05-25T06:26:58.204Z,5.78
2023-05-25T06:29:27.129Z,5.15
2023-05-25T06:31:55.767Z,5.78
2023-05-25T06:34:26.623Z,5.97
2023-05-25T06:36:55.229Z,5.20
2023-05-25T06:39:23.612Z,5.55
2023-05-25T06:41:52.114Z,4.60
2023-05-25T06:44:29.616Z,5.25
2023-05-25T06:46:57.803Z,5.45
2023-05-25T06:49:27.790Z,6.25
2023-05-25T06:51:55.994Z,8.27
2023-05-25T06:54:27.892Z,5.68
2023-05-25T06:56:56.117Z,5.18
2023-05-25T06:59:24.666Z,6.55
2023-05-25T07:01:53.011Z,6.13
2023-05-25T07:04:23.069Z,7.53
2023-05-25T07:06:53.282Z,5.22
2023-05-25T07:09:21.861Z,6.25
2023-05-25T07:11:50.361Z,5.57
2023-05-25T07:14:18.888Z,6.25
2023-05-25T07:16:47.374Z,5.60
2023-05-25T07:19:15.911Z,5.30
2023-05-25T07:21:44.471Z,6.43
2023-05-25T07:24:14.352Z,5.35
2023-05-25T07:26:44.477Z,5.85
2023-05-25T07:29:12.884Z,6.55
2023-05-25T07:31:41.464Z,5.53
2023-05-25T07:34:10.081Z,5.72
2023-05-25T07:36:38.351Z,5.55
2023-05-25T07:39:07.046Z,5.60
2023-05-25T07:41:36.912Z,5.80
2023-05-25T07:44:05.095Z,5.18
2023-05-25T07:46:33.754Z,5.35
2023-05-25T07:49:03.550Z,5.68
2023-05-25T07:51:32.911Z,4.45
2023-05-25T07:54:01.380Z,4.65
2023-05-25T07:56:29.909Z,5.15
2023-05-25T07:59:00.126Z,4.78
2023-05-25T08:01:28.824Z,4.60
2023-05-25T08:03:57.344Z,4.35
2023-05-25T08:06:25.932Z,4.82
2023-05-25T08:08:54.272Z,4.25
2023-05-25T08:11:26.380Z,3.50
2023-05-25T08:13:54.969Z,3.40
2023-05-25T08:16:24.628Z,3.42
2023-05-25T08:18:52.980Z,3.38
2023-05-25T08:21:21.544Z,3.80
2023-05-25T08:23:50.793Z,4.05
2023-05-25T08:26:38.024Z,3.28
2023-05-25T08:29:08.203Z,3.60
2023-05-25T08:31:38.300Z,4.40
2023-05-25T08:34:06.988Z,3.45
2023-05-25T08:36:36.290Z,3.72
2023-05-25T08:39:04.860Z,4.63
2023-05-25T08:41:35.994Z,4.55
2023-05-25T08:44:07.989Z,4.22
2023-05-25T08:46:38.350Z,3.85
2023-05-25T08:49:11.032Z,3.05
2023-05-25T08:51:43.368Z,3.15
2023-05-25T08:54:14.348Z,3.30
2023-05-25T08:56:50.225Z,2.83
2023-05-25T08:59:27.896Z,3.28
2023-05-25T09:02:08.259Z,2.63
2023-05-25T09:04:37.257Z,2.17
2023-05-25T09:07:10.978Z,2.58
2023-05-25T09:09:41.157Z,3.83
2023-05-25T09:12:10.784Z,2.78
2023-05-25T09:14:45.516Z,3.45
2023-05-25T09:17:16.843Z,2.97
2023-05-25T09:19:45.791Z,1.88
2023-05-25T09:22:16.331Z,1.80
2023-05-25T09:24:45.764Z,2.45
2023-05-25T09:27:18.787Z,1.65
2023-05-25T09:29:48.959Z,2.28
2023-05-25T09:32:21.062Z,2.00
2023-05-25T09:34:49.395Z,2.15
2023-05-25T09:37:19.705Z,1.63
2023-05-25T09:39:49.110Z,1.42
2023-05-25T09:42:18.416Z,1.67
2023-05-25T09:44:47.140Z,1.60
2023-05-25T09:47:16.883Z,2.08
2023-05-25T09:49:49.428Z,1.85
2023-05-25T09:52:18.324Z,2.42
2023-05-25T09:54:47.238Z,1.40
2023-05-25T09:57:16.714Z,2.15
2023-05-25T09:59:45.361Z,2.38
2023-05-25T10:02:14.424Z,1.83
2023-05-25T10:04:43.100Z,2.30
2023-05-25T10:07:14.890Z,2.35
2023-05-25T10:09:46.211Z,2.85
2023-05-25T10:12:19.159Z,2.35
2023-05-25T10:14:50.180Z,1.63
2023-05-25T10:17:25.996Z,2.17
2023-05-25T10:19:58.162Z,2.30
2023-05-25T10:22:33.761Z,2.63
2023-05-25T10:25:11.394Z,2.72
2023-05-25T10:27:42.646Z,2.65
2023-05-25T10:30:12.336Z,2.40
2023-05-25T10:32:42.142Z,2.78
2023-05-25T10:35:11.333Z,2.53
2023-05-25T10:37:41.312Z,2.15
2023-05-25T10:40:10.414Z,1.83
2023-05-25T10:42:39.862Z,2.65
2023-05-25T10:45:10.514Z,1.98
2023-05-25T10:47:42.787Z,2.65
2023-05-25T10:50:21.928Z,2.60
2023-05-25T10:53:01.558Z,2.78
2023-05-25T10:55:32.636Z,2.30
2023-05-25T10:58:11.928Z,1.73
2023-05-25T11:00:41.664Z,2.03
2023-05-25T11:03:11.173Z,2.30
2023-05-25T11:05:40.673Z,1.77
2023-05-25T11:08:12.579Z,1.67
2023-05-25T11:10:56.515Z,2.10
2023-05-25T11:13:37.020Z,2.38
2023-05-25T11:16:13.959Z,2.15
2023-05-25T11:18:43.687Z,3.53
2023-05-25T11:21:16.675Z,4.07
2023-05-25T11:23:57.684Z,2.10
2023-05-25T11:26:29.258Z,2.15
2023-05-25T11:28:59.952Z,2.90
2023-05-25T11:31:37.543Z,2.20
2023-05-25T11:34:09.401Z,2.10
2023-05-25T11:36:39.401Z,2.35
2023-05-25T11:39:20.558Z,2.13
2023-05-25T11:41:55.473Z,2.60
2023-05-25T11:44:29.210Z,1.83
2023-05-25T11:46:58.890Z,2.35
2023-05-25T11:49:27.134Z,1.42
2023-05-25T11:51:56.091Z,2.13
2023-05-25T11:54:27.609Z,1.67
2023-05-25T11:56:59.704Z,1.70
2023-05-25T11:59:30.696Z,1.67
2023-05-25T12:02:02.712Z,1.88
2023-05-25T12:04:31.220Z,2.33
2023-05-25T12:07:03.614Z,1.77
2023-05-25T12:09:33.846Z,2.00
2023-05-25T12:12:04.505Z,1.83
2023-05-25T12:14:36.207Z,2.65
2023-05-25T12:17:05.054Z,2.45
2023-05-25T12:19:33.577Z,2.00
2023-05-25T12:22:03.655Z,2.15
2023-05-25T12:24:33.365Z,1.88
2023-05-25T12:27:02.444Z,1.40
2023-05-25T12:29:30.858Z,1.60
2023-05-25T12:32:04.495Z,1.45
2023-05-25T12:34:33.089Z,1.73
2023-05-25T12:37:01.745Z,1.70
2023-05-25T12:39:38.975Z,1.65
2023-05-25T12:42:15.479Z,1.73
2023-05-25T12:44:46.522Z,2.08
2023-05-25T12:47:16.780Z,1.73
2023-05-25T12:49:46.781Z,2.00
2023-05-25T12:52:33.501Z,1.90
2023-05-25T12:55:20.788Z,1.92
2023-05-25T12:57:52.671Z,2.03
2023-05-25T13:00:23.535Z,1.88
2023-05-25T13:02:52.450Z,1.70
2023-05-25T13:05:24.416Z,1.60
2023-05-25T13:07:54.647Z,1.73
2023-05-25T13:10:25.526Z,1.85
2023-05-25T13:12:56.173Z,1.80
2023-05-25T13:15:26.137Z,1.85
2023-05-25T13:17:56.416Z,1.83
2023-05-25T13:20:26.513Z,1.25
2023-05-25T13:22:56.478Z,1.85
2023-05-25T13:25:27.389Z,1.42
2023-05-25T13:27:58.201Z,1.90
2023-05-25T13:30:26.910Z,1.50
2023-05-25T13:32:55.214Z,1.55
2023-05-25T13:35:37.507Z,2.17
2023-05-25T13:38:06.716Z,1.52
2023-05-25T13:40:36.327Z,1.48
2023-05-25T13:43:04.910Z,2.00
2023-05-25T13:45:33.529Z,2.00
2023-05-25T13:48:02.170Z,2.33
2023-05-25T13:50:30.562Z,1.77
2023-05-25T13:52:59.096Z,1.60
2023-05-25T13:55:27.334Z,2.03
2023-05-25T13:57:57.498Z,1.73
2023-05-25T14:00:25.859Z,2.42
2023-05-25T14:02:54.576Z,2.50
2023-05-25T14:05:22.952Z,1.95
2023-05-25T14:07:52.254Z,1.98
2023-05-25T14:10:21.145Z,1.67
2023-05-25T14:12:49.792Z,2.38
2023-05-25T14:15:19.688Z,2.08
2023-05-25T14:17:48.380Z,2.22
2023-05-25T14:20:22.394Z,1.90
2023-05-25T14:22:51.407Z,1.92
2023-05-25T14:25:19.654Z,1.90
2023-05-25T14:27:48.276Z,1.90
2023-05-25T14:30:16.811Z,3.00
2023-05-25T14:32:46.654Z,1.75
2023-05-25T14:35:15.170Z,2.20
2023-05-25T14:37:43.669Z,2.10
2023-05-25T14:40:13.511Z,2.30
2023-05-25T14:42:42.029Z,2.55
2023-05-25T14:45:12.042Z,2.60
2023-05-25T14:47:41.539Z,2.22
2023-05-25T14:50:11.685Z,1.92
2023-05-25T14:52:40.053Z,2.53
2023-05-25T14:55:09.616Z,1.70
2023-05-25T14:57:38.111Z,2.70
2023-05-25T15:00:07.534Z,1.73
2023-05-25T15:02:36.170Z,2.40
2023-05-25T15:05:04.903Z,1.58
2023-05-25T15:07:34.430Z,2.00
2023-05-25T15:10:02.909Z,3.05
2023-05-25T15:12:31.052Z,1.80
2023-05-25T15:14:59.612Z,2.08
2023-05-25T15:17:28.114Z,2.10
2023-05-25T15:19:56.765Z,1.95
2023-05-25T15:22:24.940Z,2.35
2023-05-25T15:24:54.913Z,2.65
2023-05-25T15:27:23.098Z,2.33
2023-05-25T15:29:51.914Z,2.55
2023-05-25T15:32:20.100Z,2.30
2023-05-25T15:34:48.684Z,2.17
2023-05-25T15:37:16.818Z,2.00
2023-05-25T15:39:45.364Z,2.38
2023-05-25T15:42:14.887Z,2.17
2023-05-25T15:44:43.353Z,2.05
2023-05-25T15:47:11.547Z,2.53
2023-05-25T15:49:40.838Z,1.80
2023-05-25T15:52:09.079Z,2.05
2023-05-25T15:54:37.898Z,2.40
2023-05-25T15:57:06.631Z,1.50
2023-05-25T15:59:36.933Z,2.17
2023-05-25T16:02:05.639Z,2.13
2023-05-25T16:04:34.102Z,2.40
2023-05-25T16:07:02.571Z,2.20
2023-05-25T16:09:31.568Z,2.88
2023-05-25T16:11:59.789Z,2.00
2023-05-25T16:14:28.208Z,1.65
2023-05-25T16:16:58.939Z,1.58
2023-05-25T16:19:27.495Z,2.00
2023-05-25T16:21:56.153Z,2.00
2023-05-25T16:24:26.838Z,1.63
2023-05-25T16:26:57.719Z,1.90
2023-05-25T16:29:26.287Z,2.28
2023-05-25T16:31:55.431Z,2.00
2023-05-25T16:34:25.883Z,2.50
2023-05-25T16:36:54.572Z,2.13
2023-05-25T16:39:23.253Z,2.42
2023-05-25T16:41:52.110Z,2.15
2023-05-25T16:44:20.425Z,2.05
2023-05-25T16:46:48.727Z,2.35
2023-05-25T16:49:17.129Z,5.47
2023-05-25T16:51:47.305Z,4.47
2023-05-25T16:54:16.532Z,3.58
2023-05-25T16:56:45.486Z,5.78
2023-05-25T16:59:13.688Z,4.93
2023-05-25T17:01:42.213Z,3.05
2023-05-25T17:04:10.904Z,2.78
2023-05-25T17:06:39.152Z,2.92
2023-05-25T17:09:12.104Z,1.77
2023-05-25T17:11:40.340Z,2.45
2023-05-25T17:14:09.222Z,2.42
2023-05-25T17:16:37.475Z,2.20
2023-05-25T17:19:06.010Z,2.13
2023-05-25T17:21:34.947Z,2.45
2023-05-25T17:24:03.916Z,3.67
2023-05-25T17:26:33.548Z,3.20
2023-05-25T17:29:02.034Z,2.30
2023-05-25T17:31:30.306Z,2.67
2023-05-25T17:33:59.204Z,3.65
2023-05-25T17:36:27.463Z,2.83
2023-05-25T17:38:55.664Z,2.40
2023-05-25T17:41:23.911Z,3.30
2023-05-25T17:43:53.933Z,2.38
2023-05-25T17:46:22.442Z,2.10
2023-05-25T17:48:51.026Z,2.15
2023-05-25T17:51:19.523Z,2.13
2023-05-25T17:53:48.246Z,2.45
2023-05-25T17:56:16.487Z,3.17
2023-05-25T17:58:47.911Z,2.33
2023-05-25T18:01:17.915Z,2.63
2023-05-25T18:03:47.072Z,3.38
2023-05-25T18:06:15.458Z,1.92
2023-05-25T18:08:44.065Z,2.40
2023-05-25T18:11:12.261Z,3.08
2023-05-25T18:13:41.177Z,2.00
2023-05-25T18:16:09.398Z,2.65
2023-05-25T18:18:39.325Z,1.83
2023-05-25T18:21:07.566Z,2.00
2023-05-25T18:23:36.408Z,1.75
2023-05-25T18:26:05.805Z,2.17
2023-05-25T18:28:34.714Z,2.10
2023-05-25T18:31:02.924Z,2.22
2023-05-25T18:33:31.902Z,2.33
2023-05-25T18:36:01.441Z,1.75
2023-05-25T18:38:30.380Z,2.00
2023-05-25T18:40:58.568Z,2.35
2023-05-25T18:43:27.557Z,2.95
2023-05-25T18:45:55.770Z,2.65
2023-05-25T18:48:24.689Z,1.70
2023-05-25T18:50:53.031Z,2.53
2023-05-25T18:53:23.275Z,1.95
2023-05-25T18:55:51.776Z,1.65
2023-05-25T18:58:20.342Z,2.10
2023-05-25T19:00:48.516Z,1.98
2023-05-25T19:03:17.644Z,2.55
2023-05-25T19:05:46.130Z,2.53
2023-05-25T19:08:15.398Z,2.00
2023-05-25T19:10:45.043Z,2.38
2023-05-25T19:13:13.579Z,1.95
2023-05-25T19:15:41.826Z,2.17
2023-05-25T19:18:10.474Z,2.78
2023-05-25T19:20:39.127Z,3.00
2023-05-25T19:23:07.704Z,2.38
2023-05-25T19:25:36.324Z,2.60
2023-05-25T19:28:06.284Z,2.15
2023-05-25T19:30:34.475Z,2.72
2023-05-25T19:33:03.126Z,2.30
2023-05-25T19:35:31.354Z,2.60
2023-05-25T19:38:01.768Z,2.72
2023-05-25T19:40:30.385Z,3.13
2023-05-25T19:42:58.954Z,2.78
2023-05-25T19:45:28.559Z,2.58
2023-05-25T19:47:58.227Z,4.32
2023-05-25T19:50:30.436Z,3.17
2023-05-25T19:52:59.536Z,5.13
2023-05-25T19:55:28.458Z,2.60
2023-05-25T19:57:57.514Z,2.92
2023-05-25T20:00:26.985Z,3.40
2023-05-25T20:02:57.727Z,2.30
2023-05-25T20:05:26.073Z,2.78
2023-05-25T20:07:56.483Z,3.03
2023-05-25T20:10:25.365Z,2.90
2023-05-25T20:12:54.384Z,2.50
2023-05-25T20:15:22.670Z,3.10
2023-05-25T20:17:51.641Z,2.63
2023-05-25T20:20:21.342Z,3.03
2023-05-25T20:22:50.478Z,2.88
2023-05-25T20:25:18.821Z,3.22
2023-05-25T20:27:47.762Z,2.45
2023-05-25T20:30:17.022Z,2.13
2023-05-25T20:32:46.221Z,2.90
2023-05-25T20:35:14.882Z,3.53
2023-05-25T20:37:45.238Z,2.53
2023-05-25T20:40:14.053Z,2.60
2023-05-25T20:42:43.062Z,3.20
2023-05-25T20:45:11.443Z,3.05
2023-05-25T20:47:41.367Z,2.67
2023-05-25T20:50:09.856Z,3.35
2023-05-25T20:52:38.532Z,3.50
2023-05-25T20:55:09.094Z,3.17
2023-05-25T20:57:37.291Z,3.00
2023-05-25T21:00:06.096Z,3.05
2023-05-25T21:02:34.652Z,2.08
2023-05-25T21:05:02.961Z,3.15
2023-05-25T21:07:31.562Z,3.40
2023-05-25T21:10:00.162Z,3.00
2023-05-25T21:12:30.082Z,3.85
2023-05-25T21:14:58.319Z,3.05
2023-05-25T21:17:26.534Z,3.25
2023-05-25T21:19:54.847Z,3.25
2023-05-25T21:22:23.589Z,2.60
2023-05-25T21:24:51.839Z,2.92
2023-05-25T21:27:20.424Z,2.78
2023-05-25T21:29:50.064Z,2.97
2023-05-25T21:32:18.773Z,3.33
2023-05-25T21:34:47.060Z,3.20
2023-05-25T21:37:15.580Z,3.00
2023-05-25T21:39:43.800Z,3.50
2023-05-25T21:42:12.344Z,3.50
2023-05-25T21:44:40.608Z,3.20
2023-05-25T21:47:11.070Z,3.58
2023-05-25T21:49:39.375Z,2.53
2023-05-25T21:52:20.136Z,2.90
2023-05-25T21:54:48.830Z,2.95
2023-05-25T21:57:17.383Z,3.00
2023-05-25T21:59:45.598Z,2.47
2023-05-25T22:02:15.681Z,3.30
2023-05-25T22:04:44.402Z,2.92
2023-05-25T22:07:13.069Z,2.75
2023-05-25T22:09:41.273Z,3.38
2023-05-25T22:12:12.352Z,3.05
2023-05-25T22:14:40.992Z,3.30
2023-05-25T22:17:09.770Z,3.47
2023-05-25T22:19:39.925Z,3.05
2023-05-25T22:22:08.496Z,2.97
2023-05-25T22:24:37.032Z,2.90
2023-05-25T22:27:06.071Z,2.97
2023-05-25T22:29:34.632Z,3.15
2023-05-25T22:32:02.835Z,2.53
2023-05-25T22:34:31.363Z,2.95
2023-05-25T22:37:02.456Z,3.90
2023-05-25T22:39:31.034Z,3.85
2023-05-25T22:41:59.653Z,4.30
2023-05-25T22:44:28.207Z,3.88
2023-05-25T22:46:56.856Z,3.63
2023-05-25T22:49:25.428Z,3.70
2023-05-25T22:51:54.132Z,3.65
2023-05-25T22:54:24.162Z,4.13
2023-05-25T22:56:52.688Z,4.35
2023-05-25T22:59:21.319Z,3.05
2023-05-25T23:01:49.916Z,3.38
2023-05-25T23:04:18.650Z,3.53
2023-05-25T23:06:47.404Z,3.60
2023-05-25T23:09:16.065Z,3.45
2023-05-25T23:11:45.681Z,3.35
2023-05-25T23:14:13.935Z,4.30
2023-05-25T23:16:42.627Z,3.85
2023-05-25T23:19:10.992Z,2.33
2023-05-25T23:21:39.202Z,3.30
2023-05-25T23:24:07.815Z,2.95
2023-05-25T23:26:36.246Z,2.80
2023-05-25T23:29:05.871Z,3.58
2023-05-25T23:31:34.698Z,3.80
2023-05-25T23:34:02.961Z,3.00
2023-05-25T23:36:31.583Z,3.67
2023-05-25T23:38:59.789Z,4.25
2023-05-25T23:41:28.416Z,3.85
2023-05-25T23:43:56.630Z,3.92
2023-05-25T23:46:31.841Z,3.40
2023-05-25T23:49:00.180Z,3.65
2023-05-25T23:51:28.814Z,3.05
2023-05-25T23:53:57.118Z,2.88
2023-05-25T23:56:27.766Z,3.55
2023-05-25T23:58:56.896Z,3.65
